sensor_id;sensor_type;location;lat;lon;timestamp;temperature;humidity
21312;DHT22;18076;52.154;10.570;2023-08-31T00:01:40;13.90;99.90
21312;DHT22;18076;52.154;10.570;2023-08-31T00:04:06;13.90;99.90
21312;DHT22;18076;52.154;10.570;2023-08-31T00:06:36;13.90;99.90
21312;DHT22;18076;52.154;10.570;2023-08-31T00:09:01;13.90;99.90
21312;DHT22;18076;52.154;10.570;2023-08-31T00:11:30;13.80;99.90
21312;DHT22;18076;52.154;10.570;2023-08-31T00:13:55;13.90;99.90
21312;DHT22;18076;52.154;10.570;2023-08-31T00:16:24;13.90;99.90
21312;DHT22;18076;52.154;10.570;2023-08-31T00:18:51;13.80;99.90
21312;DHT22;18076;52.154;10.570;2023-08-31T00:21:16;13.90;99.90
21312;DHT22;18076;52.154;10.570;2023-08-31T00:23:42;13.90;99.90
21312;DHT22;18076;52.154;10.570;2023-08-31T00:26:07;13.80;99.90
21312;DHT22;18076;52.154;10.570;2023-08-31T00:28:34;13.80;99.90
21312;DHT22;18076;52.154;10.570;2023-08-31T00:31:00;13.80;99.90
21312;DHT22;18076;52.154;10.570;2023-08-31T00:33:28;13.80;99.90
21312;DHT22;18076;52.154;10.570;2023-08-31T00:35:54;13.80;99.90
21312;DHT22;18076;52.154;10.570;2023-08-31T00:38:21;13.80;99.90
21312;DHT22;18076;52.154;10.570;2023-08-31T00:40:47;13.80;99.90
21312;DHT22;18076;52.154;10.570;2023-08-31T00:43:13;13.80;99.90
21312;DHT22;18076;52.154;10.570;2023-08-31T00:45:40;13.80;99.90
21312;DHT22;18076;52.154;10.570;2023-08-31T00:48:06;13.70;99.90
21312;DHT22;18076;52.154;10.570;2023-08-31T00:50:32;13.80;99.90
21312;DHT22;18076;52.154;10.570;2023-08-31T00:52:58;13.80;99.90
21312;DHT22;18076;52.154;10.570;2023-08-31T00:55:24;13.70;99.90
21312;DHT22;18076;52.154;10.570;2023-08-31T00:57:49;13.70;99.90
21312;DHT22;18076;52.154;10.570;2023-08-31T01:00:15;13.80;99.90
21312;DHT22;18076;52.154;10.570;2023-08-31T01:02:55;13.70;99.90
21312;DHT22;18076;52.154;10.570;2023-08-31T01:05:33;13.70;99.90
21312;DHT22;18076;52.154;10.570;2023-08-31T01:08:12;13.70;99.90
21312;DHT22;18076;52.154;10.570;2023-08-31T01:10:49;13.60;99.90
21312;DHT22;18076;52.154;10.570;2023-08-31T01:13:18;13.60;99.90
21312;DHT22;18076;52.154;10.570;2023-08-31T01:15:45;13.50;99.90
21312;DHT22;18076;52.154;10.570;2023-08-31T01:18:11;13.50;99.90
21312;DHT22;18076;52.154;10.570;2023-08-31T01:20:52;13.50;99.90
21312;DHT22;18076;52.154;10.570;2023-08-31T01:23:20;13.50;99.90
21312;DHT22;18076;52.154;10.570;2023-08-31T01:25:47;13.40;99.90
21312;DHT22;18076;52.154;10.570;2023-08-31T01:28:13;13.30;99.90
21312;DHT22;18076;52.154;10.570;2023-08-31T01:30:39;13.20;99.90
21312;DHT22;18076;52.154;10.570;2023-08-31T01:33:04;13.20;99.90
21312;DHT22;18076;52.154;10.570;2023-08-31T01:35:34;13.20;99.90
21312;DHT22;18076;52.154;10.570;2023-08-31T01:38:03;13.20;99.90
21312;DHT22;18076;52.154;10.570;2023-08-31T01:43:14;13.10;99.90
21312;DHT22;18076;52.154;10.570;2023-08-31T01:45:42;13.10;99.90
21312;DHT22;18076;52.154;10.570;2023-08-31T01:48:08;13.10;99.90
21312;DHT22;18076;52.154;10.570;2023-08-31T01:50:34;13.10;99.90
21312;DHT22;18076;52.154;10.570;2023-08-31T01:52:59;13.00;99.90
21312;DHT22;18076;52.154;10.570;2023-08-31T01:55:25;13.00;99.90
21312;DHT22;18076;52.154;10.570;2023-08-31T01:57:50;12.90;99.90
21312;DHT22;18076;52.154;10.570;2023-08-31T02:00:17;12.90;99.90
21312;DHT22;18076;52.154;10.570;2023-08-31T02:02:42;12.90;99.90
21312;DHT22;18076;52.154;10.570;2023-08-31T02:05:08;12.80;99.90
21312;DHT22;18076;52.154;10.570;2023-08-31T02:07:34;12.90;99.90
21312;DHT22;18076;52.154;10.570;2023-08-31T02:09:59;12.80;99.90
21312;DHT22;18076;52.154;10.570;2023-08-31T02:12:25;12.80;99.90
21312;DHT22;18076;52.154;10.570;2023-08-31T02:14:50;12.80;99.90
21312;DHT22;18076;52.154;10.570;2023-08-31T02:17:16;12.80;99.90
21312;DHT22;18076;52.154;10.570;2023-08-31T02:19:41;12.70;99.90
21312;DHT22;18076;52.154;10.570;2023-08-31T02:22:07;12.70;99.90
21312;DHT22;18076;52.154;10.570;2023-08-31T02:24:32;12.70;99.90
21312;DHT22;18076;52.154;10.570;2023-08-31T02:26:58;12.60;99.90
21312;DHT22;18076;52.154;10.570;2023-08-31T02:29:24;12.60;99.90
21312;DHT22;18076;52.154;10.570;2023-08-31T02:31:49;12.60;99.90
21312;DHT22;18076;52.154;10.570;2023-08-31T02:34:15;12.60;99.90
21312;DHT22;18076;52.154;10.570;2023-08-31T02:36:40;12.60;99.90
21312;DHT22;18076;52.154;10.570;2023-08-31T02:39:06;12.60;99.90
21312;DHT22;18076;52.154;10.570;2023-08-31T02:41:31;12.60;99.90
21312;DHT22;18076;52.154;10.570;2023-08-31T02:43:57;12.50;99.90
21312;DHT22;18076;52.154;10.570;2023-08-31T02:46:23;12.50;99.90
21312;DHT22;18076;52.154;10.570;2023-08-31T02:48:49;12.50;99.90
21312;DHT22;18076;52.154;10.570;2023-08-31T02:51:15;12.50;99.90
21312;DHT22;18076;52.154;10.570;2023-08-31T02:53:40;12.50;99.90
21312;DHT22;18076;52.154;10.570;2023-08-31T02:56:06;12.50;99.90
21312;DHT22;18076;52.154;10.570;2023-08-31T02:58:32;12.50;99.90
21312;DHT22;18076;52.154;10.570;2023-08-31T03:01:08;12.50;99.90
21312;DHT22;18076;52.154;10.570;2023-08-31T03:03:33;12.50;99.90
21312;DHT22;18076;52.154;10.570;2023-08-31T03:06:00;12.50;99.90
21312;DHT22;18076;52.154;10.570;2023-08-31T03:08:26;12.50;99.90
21312;DHT22;18076;52.154;10.570;2023-08-31T03:10:51;12.50;99.90
21312;DHT22;18076;52.154;10.570;2023-08-31T03:13:18;12.40;99.90
21312;DHT22;18076;52.154;10.570;2023-08-31T03:15:43;12.50;99.90
21312;DHT22;18076;52.154;10.570;2023-08-31T03:18:09;12.50;99.90
21312;DHT22;18076;52.154;10.570;2023-08-31T03:20:34;12.50;99.90
21312;DHT22;18076;52.154;10.570;2023-08-31T03:23:00;12.50;99.90
21312;DHT22;18076;52.154;10.570;2023-08-31T03:25:27;12.40;99.90
21312;DHT22;18076;52.154;10.570;2023-08-31T03:27:52;12.40;99.90
21312;DHT22;18076;52.154;10.570;2023-08-31T03:30:18;12.40;99.90
21312;DHT22;18076;52.154;10.570;2023-08-31T03:32:43;12.40;99.90
21312;DHT22;18076;52.154;10.570;2023-08-31T03:35:09;12.40;99.90
21312;DHT22;18076;52.154;10.570;2023-08-31T03:37:34;12.40;99.90
21312;DHT22;18076;52.154;10.570;2023-08-31T03:40:00;12.40;99.90
21312;DHT22;18076;52.154;10.570;2023-08-31T03:42:25;12.30;99.90
21312;DHT22;18076;52.154;10.570;2023-08-31T03:44:51;12.30;99.90
21312;DHT22;18076;52.154;10.570;2023-08-31T03:47:16;12.40;99.90
21312;DHT22;18076;52.154;10.570;2023-08-31T03:49:42;12.30;99.90
21312;DHT22;18076;52.154;10.570;2023-08-31T03:52:07;12.30;99.90
21312;DHT22;18076;52.154;10.570;2023-08-31T03:54:33;12.20;99.90
21312;DHT22;18076;52.154;10.570;2023-08-31T03:56:58;12.20;99.90
21312;DHT22;18076;52.154;10.570;2023-08-31T03:59:24;12.20;99.90
21312;DHT22;18076;52.154;10.570;2023-08-31T04:01:50;12.20;99.90
21312;DHT22;18076;52.154;10.570;2023-08-31T04:04:15;12.20;99.90
21312;DHT22;18076;52.154;10.570;2023-08-31T04:06:41;12.20;99.90
21312;DHT22;18076;52.154;10.570;2023-08-31T04:09:07;12.20;99.90
21312;DHT22;18076;52.154;10.570;2023-08-31T04:11:33;12.20;99.90
21312;DHT22;18076;52.154;10.570;2023-08-31T04:13:58;12.20;99.90
21312;DHT22;18076;52.154;10.570;2023-08-31T04:16:24;12.20;99.90
21312;DHT22;18076;52.154;10.570;2023-08-31T04:18:49;12.20;99.90
21312;DHT22;18076;52.154;10.570;2023-08-31T04:21:19;12.20;99.90
21312;DHT22;18076;52.154;10.570;2023-08-31T04:23:45;12.20;99.90
21312;DHT22;18076;52.154;10.570;2023-08-31T04:26:11;12.10;99.90
21312;DHT22;18076;52.154;10.570;2023-08-31T04:28:38;12.10;99.90
21312;DHT22;18076;52.154;10.570;2023-08-31T04:31:04;12.10;99.90
21312;DHT22;18076;52.154;10.570;2023-08-31T04:33:30;12.20;99.90
21312;DHT22;18076;52.154;10.570;2023-08-31T04:35:55;12.20;99.90
21312;DHT22;18076;52.154;10.570;2023-08-31T04:38:21;12.20;99.90
21312;DHT22;18076;52.154;10.570;2023-08-31T04:40:46;12.20;99.90
21312;DHT22;18076;52.154;10.570;2023-08-31T04:43:12;12.20;99.90
21312;DHT22;18076;52.154;10.570;2023-08-31T04:45:37;12.20;99.90
21312;DHT22;18076;52.154;10.570;2023-08-31T04:48:03;12.20;99.90
21312;DHT22;18076;52.154;10.570;2023-08-31T04:50:28;12.10;99.90
21312;DHT22;18076;52.154;10.570;2023-08-31T04:52:54;12.20;99.90
21312;DHT22;18076;52.154;10.570;2023-08-31T04:55:21;12.20;99.90
21312;DHT22;18076;52.154;10.570;2023-08-31T04:57:46;12.10;99.90
21312;DHT22;18076;52.154;10.570;2023-08-31T05:00:12;12.10;99.90
21312;DHT22;18076;52.154;10.570;2023-08-31T05:02:38;12.20;99.90
21312;DHT22;18076;52.154;10.570;2023-08-31T05:05:04;12.20;99.90
21312;DHT22;18076;52.154;10.570;2023-08-31T05:07:30;12.20;99.90
21312;DHT22;18076;52.154;10.570;2023-08-31T05:09:55;12.20;99.90
21312;DHT22;18076;52.154;10.570;2023-08-31T05:12:21;12.20;99.90
21312;DHT22;18076;52.154;10.570;2023-08-31T05:14:46;12.30;99.90
21312;DHT22;18076;52.154;10.570;2023-08-31T05:17:12;12.30;99.90
21312;DHT22;18076;52.154;10.570;2023-08-31T05:19:37;12.30;99.90
21312;DHT22;18076;52.154;10.570;2023-08-31T05:22:03;12.30;99.90
21312;DHT22;18076;52.154;10.570;2023-08-31T05:24:28;12.30;99.90
21312;DHT22;18076;52.154;10.570;2023-08-31T05:26:54;12.30;99.90
21312;DHT22;18076;52.154;10.570;2023-08-31T05:29:19;12.30;99.90
21312;DHT22;18076;52.154;10.570;2023-08-31T05:31:45;12.40;99.90
21312;DHT22;18076;52.154;10.570;2023-08-31T05:34:10;12.50;99.90
21312;DHT22;18076;52.154;10.570;2023-08-31T05:36:36;12.50;99.90
21312;DHT22;18076;52.154;10.570;2023-08-31T05:39:02;12.60;99.90
21312;DHT22;18076;52.154;10.570;2023-08-31T05:41:28;12.80;99.90
21312;DHT22;18076;52.154;10.570;2023-08-31T05:43:53;12.90;99.90
21312;DHT22;18076;52.154;10.570;2023-08-31T05:46:19;13.10;99.90
21312;DHT22;18076;52.154;10.570;2023-08-31T05:48:44;13.20;99.90
21312;DHT22;18076;52.154;10.570;2023-08-31T05:51:10;13.30;99.90
21312;DHT22;18076;52.154;10.570;2023-08-31T05:53:36;13.40;99.90
21312;DHT22;18076;52.154;10.570;2023-08-31T05:56:01;13.40;99.90
21312;DHT22;18076;52.154;10.570;2023-08-31T05:58:33;13.50;99.90
21312;DHT22;18076;52.154;10.570;2023-08-31T06:00:59;13.50;99.90
21312;DHT22;18076;52.154;10.570;2023-08-31T06:03:25;13.50;99.90
21312;DHT22;18076;52.154;10.570;2023-08-31T06:05:50;13.50;99.90
21312;DHT22;18076;52.154;10.570;2023-08-31T06:08:16;13.50;99.90
21312;DHT22;18076;52.154;10.570;2023-08-31T06:10:42;13.50;99.90
21312;DHT22;18076;52.154;10.570;2023-08-31T06:13:07;13.50;99.90
21312;DHT22;18076;52.154;10.570;2023-08-31T06:15:33;13.40;99.90
21312;DHT22;18076;52.154;10.570;2023-08-31T06:17:58;13.40;99.90
21312;DHT22;18076;52.154;10.570;2023-08-31T06:20:24;13.40;99.90
21312;DHT22;18076;52.154;10.570;2023-08-31T06:22:49;13.30;99.90
21312;DHT22;18076;52.154;10.570;2023-08-31T06:25:15;13.30;99.90
21312;DHT22;18076;52.154;10.570;2023-08-31T06:27:43;13.30;99.90
21312;DHT22;18076;52.154;10.570;2023-08-31T06:30:09;13.60;99.90
21312;DHT22;18076;52.154;10.570;2023-08-31T06:32:37;13.90;99.90
21312;DHT22;18076;52.154;10.570;2023-08-31T06:35:03;14.20;99.90
21312;DHT22;18076;52.154;10.570;2023-08-31T06:37:28;14.40;99.90
21312;DHT22;18076;52.154;10.570;2023-08-31T06:39:54;14.60;99.90
21312;DHT22;18076;52.154;10.570;2023-08-31T06:42:19;14.80;99.90
21312;DHT22;18076;52.154;10.570;2023-08-31T06:44:45;14.90;99.90
21312;DHT22;18076;52.154;10.570;2023-08-31T06:47:11;14.90;99.90
21312;DHT22;18076;52.154;10.570;2023-08-31T06:49:36;14.70;99.90
21312;DHT22;18076;52.154;10.570;2023-08-31T06:52:02;14.60;99.90
21312;DHT22;18076;52.154;10.570;2023-08-31T06:54:28;14.70;99.90
21312;DHT22;18076;52.154;10.570;2023-08-31T06:56:53;14.90;99.90
21312;DHT22;18076;52.154;10.570;2023-08-31T06:59:19;15.20;99.90
21312;DHT22;18076;52.154;10.570;2023-08-31T07:01:45;15.50;99.90
21312;DHT22;18076;52.154;10.570;2023-08-31T07:04:10;15.80;99.90
21312;DHT22;18076;52.154;10.570;2023-08-31T07:06:36;15.80;99.90
21312;DHT22;18076;52.154;10.570;2023-08-31T07:09:02;15.80;99.90
21312;DHT22;18076;52.154;10.570;2023-08-31T07:11:28;15.90;99.90
21312;DHT22;18076;52.154;10.570;2023-08-31T07:13:54;15.90;99.90
21312;DHT22;18076;52.154;10.570;2023-08-31T07:16:19;16.00;99.90
21312;DHT22;18076;52.154;10.570;2023-08-31T07:18:45;16.20;99.90
21312;DHT22;18076;52.154;10.570;2023-08-31T07:21:10;16.40;99.90
21312;DHT22;18076;52.154;10.570;2023-08-31T07:23:36;16.60;99.90
21312;DHT22;18076;52.154;10.570;2023-08-31T07:26:02;16.80;99.90
21312;DHT22;18076;52.154;10.570;2023-08-31T07:28:30;16.70;99.90
21312;DHT22;18076;52.154;10.570;2023-08-31T07:31:05;16.70;99.90
21312;DHT22;18076;52.154;10.570;2023-08-31T07:33:32;16.60;99.90
21312;DHT22;18076;52.154;10.570;2023-08-31T07:35:58;16.80;99.90
21312;DHT22;18076;52.154;10.570;2023-08-31T07:38:24;16.90;99.90
21312;DHT22;18076;52.154;10.570;2023-08-31T07:40:49;16.90;99.90
21312;DHT22;18076;52.154;10.570;2023-08-31T07:43:15;17.00;99.90
21312;DHT22;18076;52.154;10.570;2023-08-31T07:45:40;16.90;99.90
21312;DHT22;18076;52.154;10.570;2023-08-31T07:48:06;17.00;99.90
21312;DHT22;18076;52.154;10.570;2023-08-31T07:50:32;17.00;99.90
21312;DHT22;18076;52.154;10.570;2023-08-31T07:52:58;17.30;99.90
21312;DHT22;18076;52.154;10.570;2023-08-31T07:55:23;17.40;99.90
21312;DHT22;18076;52.154;10.570;2023-08-31T07:57:49;17.30;99.90
21312;DHT22;18076;52.154;10.570;2023-08-31T08:00:14;17.10;99.90
21312;DHT22;18076;52.154;10.570;2023-08-31T08:02:40;16.80;99.90
21312;DHT22;18076;52.154;10.570;2023-08-31T08:05:21;16.60;99.90
21312;DHT22;18076;52.154;10.570;2023-08-31T08:07:46;16.40;99.90
21312;DHT22;18076;52.154;10.570;2023-08-31T08:10:12;16.20;99.90
21312;DHT22;18076;52.154;10.570;2023-08-31T08:12:38;16.10;99.90
21312;DHT22;18076;52.154;10.570;2023-08-31T08:15:05;15.80;99.90
21312;DHT22;18076;52.154;10.570;2023-08-31T08:17:30;15.70;99.90
21312;DHT22;18076;52.154;10.570;2023-08-31T08:19:56;15.70;99.90
21312;DHT22;18076;52.154;10.570;2023-08-31T08:22:22;16.20;99.90
21312;DHT22;18076;52.154;10.570;2023-08-31T08:24:49;16.40;99.90
21312;DHT22;18076;52.154;10.570;2023-08-31T08:27:15;16.50;99.90
21312;DHT22;18076;52.154;10.570;2023-08-31T08:29:41;16.40;99.90
21312;DHT22;18076;52.154;10.570;2023-08-31T08:32:07;16.30;99.90
21312;DHT22;18076;52.154;10.570;2023-08-31T08:34:34;16.30;99.90
21312;DHT22;18076;52.154;10.570;2023-08-31T08:36:59;16.10;99.90
21312;DHT22;18076;52.154;10.570;2023-08-31T08:39:25;15.90;99.90
21312;DHT22;18076;52.154;10.570;2023-08-31T08:41:51;16.00;99.90
21312;DHT22;18076;52.154;10.570;2023-08-31T08:44:18;16.40;99.90
21312;DHT22;18076;52.154;10.570;2023-08-31T08:46:47;16.80;99.90
21312;DHT22;18076;52.154;10.570;2023-08-31T08:49:13;16.90;99.90
21312;DHT22;18076;52.154;10.570;2023-08-31T08:51:39;16.90;99.90
21312;DHT22;18076;52.154;10.570;2023-08-31T08:54:08;17.00;99.90
21312;DHT22;18076;52.154;10.570;2023-08-31T08:56:34;17.20;99.90
21312;DHT22;18076;52.154;10.570;2023-08-31T08:59:00;17.50;99.90
21312;DHT22;18076;52.154;10.570;2023-08-31T09:01:25;17.60;99.90
21312;DHT22;18076;52.154;10.570;2023-08-31T09:03:51;17.60;99.90
21312;DHT22;18076;52.154;10.570;2023-08-31T09:06:17;17.50;99.90
21312;DHT22;18076;52.154;10.570;2023-08-31T09:08:43;17.40;99.90
21312;DHT22;18076;52.154;10.570;2023-08-31T09:11:08;17.60;99.90
21312;DHT22;18076;52.154;10.570;2023-08-31T09:13:44;17.50;99.90
21312;DHT22;18076;52.154;10.570;2023-08-31T09:16:13;17.40;99.90
21312;DHT22;18076;52.154;10.570;2023-08-31T09:18:48;17.90;99.90
21312;DHT22;18076;52.154;10.570;2023-08-31T09:21:14;18.50;99.90
21312;DHT22;18076;52.154;10.570;2023-08-31T09:23:39;18.50;99.90
21312;DHT22;18076;52.154;10.570;2023-08-31T09:26:05;18.50;99.90
21312;DHT22;18076;52.154;10.570;2023-08-31T09:28:30;18.20;99.90
21312;DHT22;18076;52.154;10.570;2023-08-31T09:31:06;18.00;99.90
21312;DHT22;18076;52.154;10.570;2023-08-31T09:33:32;17.80;99.90
21312;DHT22;18076;52.154;10.570;2023-08-31T09:36:02;17.40;99.90
21312;DHT22;18076;52.154;10.570;2023-08-31T09:38:29;17.40;99.90
21312;DHT22;18076;52.154;10.570;2023-08-31T09:41:04;17.70;99.90
21312;DHT22;18076;52.154;10.570;2023-08-31T09:43:32;17.80;99.90
21312;DHT22;18076;52.154;10.570;2023-08-31T09:45:57;18.10;99.90
21312;DHT22;18076;52.154;10.570;2023-08-31T09:48:24;18.50;99.90
21312;DHT22;18076;52.154;10.570;2023-08-31T09:50:49;18.60;99.90
21312;DHT22;18076;52.154;10.570;2023-08-31T09:53:16;18.90;99.90
21312;DHT22;18076;52.154;10.570;2023-08-31T09:55:43;19.20;99.90
21312;DHT22;18076;52.154;10.570;2023-08-31T09:58:08;19.30;99.90
21312;DHT22;18076;52.154;10.570;2023-08-31T10:00:35;19.40;99.90
21312;DHT22;18076;52.154;10.570;2023-08-31T10:03:05;19.60;99.90
21312;DHT22;18076;52.154;10.570;2023-08-31T10:05:31;19.80;99.90
21312;DHT22;18076;52.154;10.570;2023-08-31T10:07:57;19.90;99.90
21312;DHT22;18076;52.154;10.570;2023-08-31T10:10:22;20.00;99.90
21312;DHT22;18076;52.154;10.570;2023-08-31T10:12:49;19.70;99.90
21312;DHT22;18076;52.154;10.570;2023-08-31T10:15:15;19.40;99.90
21312;DHT22;18076;52.154;10.570;2023-08-31T10:17:41;19.10;99.90
21312;DHT22;18076;52.154;10.570;2023-08-31T10:20:08;18.70;99.90
21312;DHT22;18076;52.154;10.570;2023-08-31T10:22:33;18.40;99.90
21312;DHT22;18076;52.154;10.570;2023-08-31T10:25:00;18.10;99.90
21312;DHT22;18076;52.154;10.570;2023-08-31T10:27:26;17.90;99.90
21312;DHT22;18076;52.154;10.570;2023-08-31T10:29:52;17.80;99.90
21312;DHT22;18076;52.154;10.570;2023-08-31T10:32:18;18.00;99.90
21312;DHT22;18076;52.154;10.570;2023-08-31T10:34:44;18.10;99.90
21312;DHT22;18076;52.154;10.570;2023-08-31T10:37:29;18.40;99.90
21312;DHT22;18076;52.154;10.570;2023-08-31T10:40:06;18.90;99.90
21312;DHT22;18076;52.154;10.570;2023-08-31T10:42:31;19.00;99.90
21312;DHT22;18076;52.154;10.570;2023-08-31T10:45:05;19.10;99.90
21312;DHT22;18076;52.154;10.570;2023-08-31T10:47:39;19.30;99.90
21312;DHT22;18076;52.154;10.570;2023-08-31T10:50:21;19.60;99.90
21312;DHT22;18076;52.154;10.570;2023-08-31T10:52:47;19.30;99.90
21312;DHT22;18076;52.154;10.570;2023-08-31T10:55:13;18.90;99.90
21312;DHT22;18076;52.154;10.570;2023-08-31T10:57:39;18.40;99.90
21312;DHT22;18076;52.154;10.570;2023-08-31T11:00:06;18.10;99.90
21312;DHT22;18076;52.154;10.570;2023-08-31T11:05:08;17.60;99.90
21312;DHT22;18076;52.154;10.570;2023-08-31T11:07:34;17.30;99.90
21312;DHT22;18076;52.154;10.570;2023-08-31T11:12:35;17.00;99.90
21312;DHT22;18076;52.154;10.570;2023-08-31T11:15:01;17.20;99.90
21312;DHT22;18076;52.154;10.570;2023-08-31T11:17:29;17.50;99.90
21312;DHT22;18076;52.154;10.570;2023-08-31T11:19:54;17.90;99.90
21312;DHT22;18076;52.154;10.570;2023-08-31T11:22:21;18.30;99.90
21312;DHT22;18076;52.154;10.570;2023-08-31T11:24:46;18.70;99.90
21312;DHT22;18076;52.154;10.570;2023-08-31T11:27:12;18.50;99.90
21312;DHT22;18076;52.154;10.570;2023-08-31T11:29:38;18.20;99.90
21312;DHT22;18076;52.154;10.570;2023-08-31T11:32:04;18.10;99.90
21312;DHT22;18076;52.154;10.570;2023-08-31T11:34:30;18.00;99.90
21312;DHT22;18076;52.154;10.570;2023-08-31T11:36:55;18.30;99.90
21312;DHT22;18076;52.154;10.570;2023-08-31T11:39:21;18.40;99.90
21312;DHT22;18076;52.154;10.570;2023-08-31T11:41:47;18.30;99.90
21312;DHT22;18076;52.154;10.570;2023-08-31T11:44:14;18.20;99.90
21312;DHT22;18076;52.154;10.570;2023-08-31T11:46:44;18.00;99.90
21312;DHT22;18076;52.154;10.570;2023-08-31T11:49:10;17.70;99.90
21312;DHT22;18076;52.154;10.570;2023-08-31T11:51:36;17.40;99.90
21312;DHT22;18076;52.154;10.570;2023-08-31T11:54:03;17.20;99.90
21312;DHT22;18076;52.154;10.570;2023-08-31T11:59:24;17.00;99.90
21312;DHT22;18076;52.154;10.570;2023-08-31T12:01:50;16.90;99.90
21312;DHT22;18076;52.154;10.570;2023-08-31T12:04:25;16.90;99.90
21312;DHT22;18076;52.154;10.570;2023-08-31T12:06:51;16.90;99.90
21312;DHT22;18076;52.154;10.570;2023-08-31T12:09:17;16.60;99.90
21312;DHT22;18076;52.154;10.570;2023-08-31T12:11:49;16.70;99.90
21312;DHT22;18076;52.154;10.570;2023-08-31T12:14:19;17.10;99.90
21312;DHT22;18076;52.154;10.570;2023-08-31T12:16:45;17.60;99.90
21312;DHT22;18076;52.154;10.570;2023-08-31T12:19:14;17.70;99.90
21312;DHT22;18076;52.154;10.570;2023-08-31T12:21:41;17.80;99.90
21312;DHT22;18076;52.154;10.570;2023-08-31T12:24:07;18.00;99.90
21312;DHT22;18076;52.154;10.570;2023-08-31T12:26:32;18.40;99.90
21312;DHT22;18076;52.154;10.570;2023-08-31T12:28:58;18.60;99.90
21312;DHT22;18076;52.154;10.570;2023-08-31T12:31:24;18.80;99.90
21312;DHT22;18076;52.154;10.570;2023-08-31T12:33:49;18.80;99.90
21312;DHT22;18076;52.154;10.570;2023-08-31T12:36:15;18.90;99.90
21312;DHT22;18076;52.154;10.570;2023-08-31T12:38:41;18.70;99.90
21312;DHT22;18076;52.154;10.570;2023-08-31T12:41:06;18.80;99.90
21312;DHT22;18076;52.154;10.570;2023-08-31T12:43:33;19.20;99.90
21312;DHT22;18076;52.154;10.570;2023-08-31T12:45:58;19.60;99.90
21312;DHT22;18076;52.154;10.570;2023-08-31T12:48:24;19.80;99.90
21312;DHT22;18076;52.154;10.570;2023-08-31T12:50:49;20.10;99.90
21312;DHT22;18076;52.154;10.570;2023-08-31T12:53:15;20.40;99.90
21312;DHT22;18076;52.154;10.570;2023-08-31T12:55:41;20.20;99.90
21312;DHT22;18076;52.154;10.570;2023-08-31T12:58:06;20.20;99.90
21312;DHT22;18076;52.154;10.570;2023-08-31T13:00:32;20.20;99.90
21312;DHT22;18076;52.154;10.570;2023-08-31T13:02:58;20.10;99.90
21312;DHT22;18076;52.154;10.570;2023-08-31T13:05:23;19.90;99.90
21312;DHT22;18076;52.154;10.570;2023-08-31T13:07:49;20.00;99.90
21312;DHT22;18076;52.154;10.570;2023-08-31T13:10:14;20.00;99.90
21312;DHT22;18076;52.154;10.570;2023-08-31T13:12:40;19.90;99.90
21312;DHT22;18076;52.154;10.570;2023-08-31T13:15:06;19.80;99.90
21312;DHT22;18076;52.154;10.570;2023-08-31T13:17:33;19.80;99.90
21312;DHT22;18076;52.154;10.570;2023-08-31T13:19:59;19.80;99.90
21312;DHT22;18076;52.154;10.570;2023-08-31T13:22:24;19.90;99.90
21312;DHT22;18076;52.154;10.570;2023-08-31T13:24:51;20.10;99.90
21312;DHT22;18076;52.154;10.570;2023-08-31T13:27:17;20.00;99.90
21312;DHT22;18076;52.154;10.570;2023-08-31T13:29:42;20.00;99.90
21312;DHT22;18076;52.154;10.570;2023-08-31T13:32:08;19.90;99.90
21312;DHT22;18076;52.154;10.570;2023-08-31T13:34:34;19.90;99.90
21312;DHT22;18076;52.154;10.570;2023-08-31T13:37:00;19.80;99.90
21312;DHT22;18076;52.154;10.570;2023-08-31T13:39:25;19.90;99.90
21312;DHT22;18076;52.154;10.570;2023-08-31T13:41:52;19.90;99.90
21312;DHT22;18076;52.154;10.570;2023-08-31T13:44:18;19.90;99.90
21312;DHT22;18076;52.154;10.570;2023-08-31T13:46:43;19.80;99.90
21312;DHT22;18076;52.154;10.570;2023-08-31T13:49:09;19.70;99.90
21312;DHT22;18076;52.154;10.570;2023-08-31T13:51:35;19.60;99.90
21312;DHT22;18076;52.154;10.570;2023-08-31T13:54:01;19.70;99.90
21312;DHT22;18076;52.154;10.570;2023-08-31T13:56:26;19.70;99.90
21312;DHT22;18076;52.154;10.570;2023-08-31T13:58:52;19.40;99.90
21312;DHT22;18076;52.154;10.570;2023-08-31T14:01:17;19.10;99.90
21312;DHT22;18076;52.154;10.570;2023-08-31T14:03:43;18.80;99.90
21312;DHT22;18076;52.154;10.570;2023-08-31T14:06:08;18.60;99.90
21312;DHT22;18076;52.154;10.570;2023-08-31T14:08:34;18.50;99.90
21312;DHT22;18076;52.154;10.570;2023-08-31T14:11:00;18.40;99.90
21312;DHT22;18076;52.154;10.570;2023-08-31T14:13:26;18.40;99.90
21312;DHT22;18076;52.154;10.570;2023-08-31T14:15:52;18.60;99.90
21312;DHT22;18076;52.154;10.570;2023-08-31T14:18:18;18.80;99.90
21312;DHT22;18076;52.154;10.570;2023-08-31T14:20:43;18.80;99.90
21312;DHT22;18076;52.154;10.570;2023-08-31T14:23:09;18.70;99.90
21312;DHT22;18076;52.154;10.570;2023-08-31T14:25:35;18.40;99.90
21312;DHT22;18076;52.154;10.570;2023-08-31T14:28:01;18.20;99.90
21312;DHT22;18076;52.154;10.570;2023-08-31T14:30:26;18.10;99.90
21312;DHT22;18076;52.154;10.570;2023-08-31T14:32:52;17.80;99.90
21312;DHT22;18076;52.154;10.570;2023-08-31T14:35:17;17.70;99.90
21312;DHT22;18076;52.154;10.570;2023-08-31T14:37:43;17.50;99.90
21312;DHT22;18076;52.154;10.570;2023-08-31T14:40:09;17.20;99.90
21312;DHT22;18076;52.154;10.570;2023-08-31T14:42:35;17.00;99.90
21312;DHT22;18076;52.154;10.570;2023-08-31T14:45:01;16.90;99.90
21312;DHT22;18076;52.154;10.570;2023-08-31T14:47:27;16.90;99.90
21312;DHT22;18076;52.154;10.570;2023-08-31T14:49:54;17.00;99.90
21312;DHT22;18076;52.154;10.570;2023-08-31T14:52:20;17.00;99.90
21312;DHT22;18076;52.154;10.570;2023-08-31T14:54:51;16.90;99.90
21312;DHT22;18076;52.154;10.570;2023-08-31T14:57:17;16.80;99.90
21312;DHT22;18076;52.154;10.570;2023-08-31T14:59:42;16.80;99.90
21312;DHT22;18076;52.154;10.570;2023-08-31T15:02:10;16.70;99.90
21312;DHT22;18076;52.154;10.570;2023-08-31T15:04:35;16.80;99.90
21312;DHT22;18076;52.154;10.570;2023-08-31T15:07:01;17.10;99.90
21312;DHT22;18076;52.154;10.570;2023-08-31T15:09:26;17.40;99.90
21312;DHT22;18076;52.154;10.570;2023-08-31T15:11:52;17.80;99.90
21312;DHT22;18076;52.154;10.570;2023-08-31T15:14:18;17.90;99.90
21312;DHT22;18076;52.154;10.570;2023-08-31T15:16:43;17.90;99.90
21312;DHT22;18076;52.154;10.570;2023-08-31T15:19:09;17.90;99.90
21312;DHT22;18076;52.154;10.570;2023-08-31T15:21:34;17.90;99.90